Angie, Louisiana
Current Conditions -  °F | °C
As of 3:53 PM on Sunday 23 Nov 2014 (Local Time) from KHBG Reporting Station
Clear Clear  
Wind Chill: 72°   Ceiling: Unl
Heat Index: 72°   Visibility: 10mi
Dew Point: 59°   Wind: 16mph
Humidity: 64%   Direction: 200°SSW
Pressure: 29.61"   Gusts: 25mph
Location:  30.96°N, 89.82°W
Report Text: KHBG 232153Z AUTO 20014G22KT 10SM CLR 22/15 A2961 RMK AO2 SLP024 T02220150
Loading
Personal Weather Stations






























Interactive Weather Map New forecast layout! Learn more

10-Day Weather Forecast

Advertisements
Track Severe Weather on mobile